createdAt,value
2023-02-07T00:01:28.394Z,57.69
2023-02-07T00:04:41.748Z,57.49
2023-02-07T00:12:05.404Z,57.60
2023-02-07T00:27:11.374Z,57.20
2023-02-07T00:30:16.251Z,57.38
2023-02-07T00:33:27.175Z,57.38
2023-02-07T00:36:47.976Z,58.33
2023-02-07T00:39:38.520Z,57.59
2023-02-07T00:42:18.222Z,57.51
2023-02-07T00:44:45.755Z,57.38
2023-02-07T00:47:13.217Z,57.66
2023-02-07T00:49:40.635Z,57.26
2023-02-07T00:52:08.170Z,57.03
2023-02-07T00:54:35.625Z,57.18
2023-02-07T00:57:03.309Z,57.69
2023-02-07T00:59:30.837Z,57.58
2023-02-07T01:01:58.848Z,57.55
2023-02-07T01:04:27.291Z,57.46
2023-02-07T01:06:54.875Z,57.16
2023-02-07T01:09:22.327Z,57.17
2023-02-07T01:11:50.421Z,57.11
2023-02-07T01:14:21.086Z,56.77
2023-02-07T01:16:50.099Z,56.93
2023-02-07T01:19:18.828Z,57.46
2023-02-07T01:21:46.449Z,57.25
2023-02-07T01:24:14.059Z,57.05
2023-02-07T01:26:41.765Z,56.66
2023-02-07T01:29:14.014Z,56.96
2023-02-07T01:31:42.887Z,56.82
2023-02-07T01:34:12.299Z,56.79
2023-02-07T01:36:40.373Z,56.85
2023-02-07T01:39:08.147Z,56.59
2023-02-07T01:41:35.856Z,56.44
2023-02-07T01:44:28.928Z,57.02
2023-02-07T01:46:57.265Z,56.70
2023-02-07T01:49:29.367Z,57.14
2023-02-07T01:52:02.322Z,57.17
2023-02-07T01:54:33.619Z,57.51
2023-02-07T01:57:06.426Z,57.47
2023-02-07T01:59:38.872Z,57.23
2023-02-07T02:02:06.673Z,57.29
2023-02-07T02:04:34.243Z,57.12
2023-02-07T02:07:02.005Z,57.17
2023-02-07T02:09:30.014Z,57.18
2023-02-07T02:12:15.698Z,56.90
2023-02-07T02:15:02.424Z,56.64
2023-02-07T02:17:52.166Z,56.31
2023-02-07T02:20:52.338Z,56.64
2023-02-07T02:23:33.584Z,56.66
2023-02-07T02:26:28.788Z,56.37
2023-02-07T02:29:09.635Z,56.95
2023-02-07T02:31:45.925Z,56.51
2023-02-07T02:34:20.798Z,56.43
2023-02-07T02:37:06.445Z,56.10
2023-02-07T02:40:17.022Z,56.16
2023-02-07T02:42:52.687Z,56.21
2023-02-07T02:45:32.054Z,56.25
2023-02-07T02:48:02.278Z,56.44
2023-02-07T02:50:31.591Z,56.06
2023-02-07T02:52:59.052Z,56.00
2023-02-07T02:56:10.010Z,56.35
2023-02-07T02:59:14.896Z,56.23
2023-02-07T03:02:07.477Z,55.75
2023-02-07T03:05:13.119Z,55.86
2023-02-07T03:08:10.105Z,55.62
2023-02-07T03:10:57.589Z,55.55
2023-02-07T03:13:40.084Z,55.53
2023-02-07T03:16:19.688Z,54.87
2023-02-07T03:19:15.623Z,55.02
2023-02-07T03:21:47.211Z,55.56
2023-02-07T03:24:18.781Z,56.13
2023-02-07T03:26:51.017Z,55.82
2023-02-07T03:29:21.268Z,55.81
2023-02-07T03:31:53.375Z,56.01
2023-02-07T03:34:32.607Z,55.72
2023-02-07T03:37:17.827Z,55.47
2023-02-07T03:39:45.778Z,55.39
2023-02-07T03:42:41.450Z,55.72
2023-02-07T03:45:14.499Z,55.20
2023-02-07T03:47:42.048Z,55.59
2023-02-07T03:50:10.736Z,55.27
2023-02-07T03:52:38.298Z,55.39
2023-02-07T03:55:07.020Z,55.30
2023-02-07T03:57:34.756Z,55.58
2023-02-07T04:00:02.439Z,55.17
2023-02-07T04:02:40.524Z,55.07
2023-02-07T04:05:08.352Z,55.38
2023-02-07T04:07:35.860Z,55.21
2023-02-07T04:10:04.876Z,55.23
2023-02-07T04:12:33.069Z,55.36
2023-02-07T04:15:01.696Z,55.60
2023-02-07T04:17:31.401Z,55.40
2023-02-07T04:20:01.703Z,54.91
2023-02-07T04:22:31.464Z,55.27
2023-02-07T04:24:59.059Z,55.36
2023-02-07T04:27:26.636Z,55.28
2023-02-07T04:29:54.185Z,55.52
2023-02-07T04:32:22.012Z,55.63
2023-02-07T04:34:49.493Z,55.59
2023-02-07T04:37:17.007Z,55.56
2023-02-07T04:39:46.172Z,55.48
2023-02-07T04:42:13.732Z,55.31
2023-02-07T04:44:42.520Z,55.61
2023-02-07T04:47:10.070Z,55.20
2023-02-07T04:49:37.548Z,54.93
2023-02-07T04:52:05.073Z,55.21
2023-02-07T04:54:32.589Z,55.14
2023-02-07T04:57:00.147Z,55.25
2023-02-07T04:59:29.084Z,55.11
2023-02-07T05:01:56.718Z,55.66
2023-02-07T05:04:24.345Z,54.79
2023-02-07T05:06:51.936Z,54.77
2023-02-07T05:09:19.384Z,54.67
2023-02-07T05:11:46.807Z,54.59
2023-02-07T05:14:14.456Z,54.33
2023-02-07T05:16:42.051Z,54.70
2023-02-07T05:19:09.643Z,55.05
2023-02-07T05:21:37.061Z,54.82
2023-02-07T05:24:04.800Z,54.98
2023-02-07T05:26:32.295Z,53.86
2023-02-07T05:28:59.786Z,54.59
2023-02-07T05:31:47.341Z,54.62
2023-02-07T05:34:15.022Z,54.62
2023-02-07T05:36:42.739Z,54.59
2023-02-07T05:39:10.371Z,54.16
2023-02-07T05:41:37.860Z,54.46
2023-02-07T05:44:05.406Z,54.23
2023-02-07T05:46:33.071Z,54.49
2023-02-07T05:49:00.696Z,54.88
2023-02-07T05:51:28.229Z,54.91
2023-02-07T05:53:55.702Z,55.45
2023-02-07T05:56:23.177Z,55.29
2023-02-07T05:58:50.705Z,54.88
2023-02-07T06:01:18.190Z,54.71
2023-02-07T06:03:45.808Z,54.62
2023-02-07T06:06:13.262Z,54.94
2023-02-07T06:08:40.823Z,54.66
2023-02-07T06:11:08.272Z,54.66
2023-02-07T06:13:35.898Z,54.38
2023-02-07T06:16:03.469Z,54.70
2023-02-07T06:18:31.105Z,54.90
2023-02-07T06:20:58.578Z,54.89
2023-02-07T06:23:26.223Z,54.64
2023-02-07T06:25:54.340Z,54.39
2023-02-07T06:28:21.891Z,54.42
2023-02-07T06:30:52.037Z,54.11
2023-02-07T06:36:49.571Z,54.41
2023-02-07T06:39:34.974Z,54.16
2023-02-07T06:46:06.166Z,54.10
2023-02-07T06:48:33.944Z,54.08
2023-02-07T06:51:01.693Z,54.27
2023-02-07T06:53:29.987Z,54.06
2023-02-07T06:55:57.629Z,54.12
2023-02-07T06:58:25.302Z,53.53
2023-02-07T07:00:52.786Z,53.54
2023-02-07T07:03:20.549Z,53.80
2023-02-07T07:05:48.048Z,54.02
2023-02-07T07:08:18.325Z,53.93
2023-02-07T07:10:45.980Z,54.16
2023-02-07T07:13:13.465Z,53.86
2023-02-07T07:15:41.297Z,54.25
2023-02-07T07:18:08.906Z,53.90
2023-02-07T07:20:36.459Z,53.44
2023-02-07T07:23:04.243Z,53.80
2023-02-07T07:25:31.806Z,53.18
2023-02-07T07:27:59.469Z,53.19
2023-02-07T07:30:26.967Z,53.40
2023-02-07T07:32:54.618Z,53.30
2023-02-07T07:35:22.062Z,53.04
2023-02-07T07:37:49.501Z,52.89
2023-02-07T07:40:17.112Z,53.04
2023-02-07T07:42:44.687Z,52.90
2023-02-07T07:45:30.559Z,52.84
2023-02-07T07:47:58.112Z,52.68
2023-02-07T07:50:25.558Z,52.68
2023-02-07T07:52:53.192Z,52.93
2023-02-07T07:55:20.704Z,52.77
2023-02-07T07:57:50.575Z,52.70
2023-02-07T08:00:18.355Z,52.63
2023-02-07T08:02:45.881Z,52.60
2023-02-07T08:05:13.998Z,52.13
2023-02-07T08:07:41.663Z,52.18
2023-02-07T08:10:12.300Z,52.22
2023-02-07T08:12:41.123Z,52.24
2023-02-07T08:15:09.919Z,52.35
2023-02-07T08:17:37.465Z,52.22
2023-02-07T08:20:05.582Z,51.99
2023-02-07T08:22:33.032Z,51.59
2023-02-07T08:25:00.649Z,51.24
2023-02-07T08:27:28.285Z,51.69
2023-02-07T08:29:55.872Z,51.87
2023-02-07T08:32:23.434Z,51.55
2023-02-07T08:34:50.967Z,51.76
2023-02-07T08:37:18.681Z,51.66
2023-02-07T08:39:46.214Z,51.53
2023-02-07T08:42:13.760Z,51.40
2023-02-07T08:44:41.293Z,50.80
2023-02-07T08:47:08.862Z,50.82
2023-02-07T08:49:36.352Z,51.08
2023-02-07T08:52:04.235Z,51.27
2023-02-07T08:54:31.735Z,50.98
2023-02-07T08:56:59.409Z,50.85
2023-02-07T08:59:27.244Z,50.66
2023-02-07T09:01:54.886Z,50.93
2023-02-07T09:04:22.607Z,50.85
2023-02-07T09:06:50.359Z,50.40
2023-02-07T09:09:18.768Z,50.48
2023-02-07T09:11:46.378Z,50.38
2023-02-07T09:14:14.061Z,50.08
2023-02-07T09:16:41.566Z,50.20
2023-02-07T09:19:09.109Z,50.07
2023-02-07T09:21:37.638Z,50.08
2023-02-07T09:24:05.422Z,49.96
2023-02-07T09:26:34.510Z,49.82
2023-02-07T09:29:03.046Z,49.21
2023-02-07T09:31:30.729Z,49.07
2023-02-07T09:34:00.203Z,48.84
2023-02-07T09:36:29.564Z,48.91
2023-02-07T09:38:58.318Z,48.95
2023-02-07T09:41:31.585Z,47.88
2023-02-07T09:44:16.550Z,47.47
2023-02-07T09:47:12.053Z,46.93
2023-02-07T09:49:47.479Z,47.16
2023-02-07T09:52:21.491Z,47.43
2023-02-07T09:54:54.486Z,47.24
2023-02-07T09:57:31.756Z,47.91
2023-02-07T10:00:31.678Z,47.67
2023-02-07T10:07:19.419Z,47.65
2023-02-07T10:11:16.829Z,47.79
2023-02-07T10:15:26.815Z,48.08
2023-02-07T10:18:31.750Z,48.46
2023-02-07T10:21:11.855Z,48.72
2023-02-07T10:24:04.776Z,48.19
2023-02-07T10:27:02.064Z,48.22
2023-02-07T10:30:09.568Z,48.12
2023-02-07T10:33:02.677Z,48.22
2023-02-07T10:36:01.106Z,48.56
2023-02-07T10:39:12.854Z,48.02
2023-02-07T10:41:44.117Z,48.43
2023-02-07T10:44:22.806Z,47.53
2023-02-07T10:47:00.526Z,47.84
2023-02-07T10:49:31.976Z,47.85
2023-02-07T10:52:06.293Z,47.78
2023-02-07T10:54:57.376Z,47.35
2023-02-07T10:57:26.762Z,47.71
2023-02-07T11:00:10.953Z,47.53
2023-02-07T11:02:49.503Z,47.60
2023-02-07T11:05:17.138Z,47.99
2023-02-07T11:08:03.192Z,48.04
2023-02-07T11:10:38.120Z,48.24
2023-02-07T11:13:14.183Z,48.47
2023-02-07T11:16:07.927Z,48.35
2023-02-07T11:19:03.205Z,48.44
2023-02-07T11:21:38.305Z,48.63
2023-02-07T11:24:13.332Z,48.66
2023-02-07T11:27:12.961Z,48.27
2023-02-07T11:29:49.655Z,48.29
2023-02-07T11:32:17.944Z,48.55
2023-02-07T11:34:58.726Z,48.54
2023-02-07T11:37:32.467Z,48.63
2023-02-07T11:40:27.225Z,48.46
2023-02-07T11:43:18.424Z,48.82
2023-02-07T11:45:53.620Z,48.81
2023-02-07T11:48:35.653Z,48.95
2023-02-07T11:51:06.619Z,49.02
2023-02-07T11:53:47.901Z,48.75
2023-02-07T11:56:48.762Z,49.04
2023-02-07T11:59:24.905Z,48.97
2023-02-07T12:01:55.605Z,48.84
2023-02-07T12:04:38.874Z,48.54
2023-02-07T12:07:26.538Z,48.96
2023-02-07T12:09:57.961Z,49.30
2023-02-07T12:13:07.684Z,49.28
2023-02-07T12:16:12.737Z,48.92
2023-02-07T12:19:00.837Z,49.04
2023-02-07T12:21:28.182Z,48.97
2023-02-07T12:24:03.980Z,48.81
2023-02-07T12:27:13.653Z,48.52
2023-02-07T12:29:49.597Z,48.55
2023-02-07T12:32:54.750Z,48.58
2023-02-07T12:35:56.784Z,48.47
2023-02-07T12:38:31.137Z,48.49
2023-02-07T12:41:38.210Z,48.42
2023-02-07T12:44:28.751Z,48.41
2023-02-07T12:47:26.029Z,48.90
2023-02-07T12:50:31.386Z,49.07
2023-02-07T12:53:43.564Z,48.92
2023-02-07T12:56:22.159Z,49.11
2023-02-07T12:59:03.293Z,49.13
2023-02-07T13:01:49.447Z,49.18
2023-02-07T13:04:49.817Z,49.08
2023-02-07T13:07:44.438Z,48.58
2023-02-07T13:10:31.840Z,49.17
2023-02-07T13:13:14.468Z,48.84
2023-02-07T13:15:53.872Z,48.93
2023-02-07T13:18:27.732Z,49.37
2023-02-07T13:21:18.893Z,49.38
2023-02-07T13:23:48.816Z,49.64
2023-02-07T13:26:27.715Z,49.74
2023-02-07T13:28:57.021Z,49.65
2023-02-07T13:31:51.192Z,49.39
2023-02-07T13:34:24.832Z,49.54
2023-02-07T13:36:53.398Z,49.79
2023-02-07T13:39:39.335Z,49.53
2023-02-07T13:42:27.368Z,49.85
2023-02-07T13:45:14.704Z,49.78
2023-02-07T13:47:51.264Z,49.55
2023-02-07T13:50:30.967Z,49.39
2023-02-07T13:53:29.023Z,49.54
2023-02-07T13:56:08.428Z,49.78
2023-02-07T13:58:54.253Z,49.81
2023-02-07T14:01:27.917Z,50.18
2023-02-07T14:04:03.529Z,50.05
2023-02-07T14:06:35.198Z,50.11
2023-02-07T14:09:18.356Z,50.34
2023-02-07T14:12:22.737Z,50.25
2023-02-07T14:15:01.878Z,50.28
2023-02-07T14:17:30.767Z,50.47
2023-02-07T14:20:00.265Z,50.69
2023-02-07T14:22:51.821Z,50.33
2023-02-07T14:25:31.676Z,50.23
2023-02-07T14:28:20.157Z,50.42
2023-02-07T14:30:54.018Z,50.55
2023-02-07T14:33:39.252Z,50.49
2023-02-07T14:36:14.064Z,50.65
2023-02-07T14:38:46.298Z,50.65
2023-02-07T14:41:16.583Z,50.68
2023-02-07T14:44:07.923Z,50.75
2023-02-07T14:46:47.285Z,50.86
2023-02-07T14:49:17.816Z,51.07
2023-02-07T14:51:47.927Z,51.20
2023-02-07T14:54:18.536Z,50.81
2023-02-07T14:56:57.156Z,50.95
2023-02-07T14:59:40.688Z,51.26
2023-02-07T15:02:34.588Z,51.37
2023-02-07T15:05:14.133Z,51.73
2023-02-07T15:07:44.019Z,51.35
2023-02-07T15:10:24.301Z,52.01
2023-02-07T15:12:56.302Z,52.26
2023-02-07T15:15:27.332Z,51.95
2023-02-07T15:18:01.047Z,51.82
2023-02-07T15:20:32.298Z,51.71
2023-02-07T15:23:02.580Z,51.88
2023-02-07T15:25:33.121Z,51.78
2023-02-07T15:28:09.268Z,51.91
2023-02-07T15:30:38.809Z,51.91
2023-02-07T15:33:16.962Z,51.92
2023-02-07T15:35:44.449Z,51.70
2023-02-07T15:38:27.639Z,51.56
2023-02-07T15:40:55.981Z,51.86
2023-02-07T15:43:28.116Z,51.81
2023-02-07T15:46:04.130Z,51.57
2023-02-07T15:48:32.710Z,51.64
2023-02-07T15:51:03.958Z,51.44
2023-02-07T15:53:31.975Z,51.42
2023-02-07T15:55:59.640Z,51.71
2023-02-07T15:58:35.167Z,51.97
2023-02-07T16:01:06.226Z,51.99
2023-02-07T16:03:41.649Z,52.00
2023-02-07T16:06:21.060Z,52.24
2023-02-07T16:08:51.024Z,51.90
2023-02-07T16:11:27.701Z,52.31
2023-02-07T16:14:03.203Z,52.17
2023-02-07T16:16:37.486Z,52.04
2023-02-07T16:19:26.565Z,52.16
2023-02-07T16:22:03.838Z,52.18
2023-02-07T16:24:35.487Z,52.24
2023-02-07T16:27:04.726Z,52.15
2023-02-07T16:29:33.261Z,52.16
2023-02-07T16:32:00.985Z,52.14
2023-02-07T16:34:28.464Z,52.27
2023-02-07T16:36:56.941Z,52.54
2023-02-07T16:39:24.460Z,52.47
2023-02-07T16:41:56.409Z,52.47
2023-02-07T16:44:26.075Z,52.28
2023-02-07T16:46:53.817Z,52.27
2023-02-07T16:49:23.226Z,52.40
2023-02-07T16:51:51.529Z,52.43
2023-02-07T16:54:19.745Z,52.25
2023-02-07T16:56:50.565Z,52.48
2023-02-07T16:59:20.735Z,52.49
2023-02-07T17:01:51.947Z,52.48
2023-02-07T17:04:20.207Z,52.47
2023-02-07T17:06:48.485Z,53.09
2023-02-07T17:09:18.419Z,53.19
2023-02-07T17:11:48.344Z,53.03
2023-02-07T17:14:16.097Z,53.40
2023-02-07T17:16:43.796Z,53.54
2023-02-07T17:19:18.435Z,53.74
2023-02-07T17:21:47.266Z,53.82
2023-02-07T17:24:15.427Z,53.94
2023-02-07T17:26:46.485Z,54.11
2023-02-07T17:29:15.762Z,53.86
2023-02-07T17:31:47.038Z,54.30
2023-02-07T17:34:14.711Z,54.47
2023-02-07T17:36:49.939Z,54.63
2023-02-07T17:39:19.661Z,54.58
2023-02-07T17:41:48.418Z,54.46
2023-02-07T17:44:21.186Z,54.46
2023-02-07T17:46:49.232Z,54.48
2023-02-07T17:49:17.890Z,54.44
2023-02-07T17:51:45.621Z,54.30
2023-02-07T17:54:13.127Z,54.38
2023-02-07T17:56:40.568Z,54.38
2023-02-07T17:59:15.891Z,54.32
2023-02-07T18:01:43.407Z,54.62
2023-02-07T18:04:10.823Z,54.52
2023-02-07T18:06:38.428Z,54.18
2023-02-07T18:09:05.910Z,54.23
2023-02-07T18:11:34.752Z,54.29
2023-02-07T18:14:03.048Z,53.99
2023-02-07T18:16:30.513Z,53.96
2023-02-07T18:18:58.192Z,53.98
2023-02-07T18:21:26.838Z,53.87
2023-02-07T18:23:54.414Z,53.92
2023-02-07T18:26:22.611Z,53.85
2023-02-07T18:28:50.491Z,53.78
2023-02-07T18:31:21.391Z,53.71
2023-02-07T18:33:50.338Z,53.65
2023-02-07T18:36:19.048Z,53.83
2023-02-07T18:38:46.737Z,53.36
2023-02-07T18:41:17.488Z,53.67
2023-02-07T18:43:45.033Z,53.90
2023-02-07T18:46:18.684Z,53.80
2023-02-07T18:48:46.920Z,53.48
2023-02-07T18:51:16.005Z,54.01
2023-02-07T18:53:46.275Z,53.74
2023-02-07T18:56:17.025Z,53.86
2023-02-07T18:58:50.958Z,53.81
2023-02-07T19:01:20.500Z,53.61
2023-02-07T19:03:54.523Z,53.84
2023-02-07T19:06:24.269Z,53.83
2023-02-07T19:08:52.570Z,53.62
2023-02-07T19:11:20.470Z,53.37
2023-02-07T19:13:48.050Z,53.47
2023-02-07T19:16:19.249Z,53.84
2023-02-07T19:18:48.325Z,53.64
2023-02-07T19:21:23.824Z,53.85
2023-02-07T19:23:51.424Z,53.79
2023-02-07T19:26:20.044Z,53.40
2023-02-07T19:28:47.606Z,53.40
2023-02-07T19:31:18.161Z,53.32
2023-02-07T19:33:48.822Z,53.41
2023-02-07T19:36:17.884Z,53.72
2023-02-07T19:38:48.660Z,53.55
2023-02-07T19:41:19.303Z,53.47
2023-02-07T19:43:47.790Z,53.27
2023-02-07T19:46:16.033Z,53.33
2023-02-07T19:48:44.722Z,53.37
2023-02-07T19:51:22.812Z,53.64
2023-02-07T19:53:51.762Z,52.97
2023-02-07T19:56:20.996Z,53.26
2023-02-07T19:58:51.550Z,53.25
2023-02-07T20:01:20.174Z,53.33
2023-02-07T20:03:53.093Z,53.35
2023-02-07T20:06:24.740Z,53.32
2023-02-07T20:08:52.374Z,53.43
2023-02-07T20:11:20.877Z,53.61
2023-02-07T20:13:52.376Z,53.24
2023-02-07T20:16:25.016Z,53.45
2023-02-07T20:18:53.735Z,53.29
2023-02-07T20:21:24.666Z,53.55
2023-02-07T20:23:55.046Z,53.59
2023-02-07T20:26:30.501Z,53.48
2023-02-07T20:29:02.070Z,53.81
2023-02-07T20:31:32.089Z,53.87
2023-02-07T20:34:02.174Z,53.48
2023-02-07T20:36:31.616Z,53.65
2023-02-07T20:39:00.418Z,53.69
2023-02-07T20:41:29.656Z,54.14
2023-02-07T20:44:06.926Z,54.09
2023-02-07T20:46:36.223Z,53.75
2023-02-07T20:49:13.220Z,53.52
2023-02-07T20:51:42.480Z,54.00
2023-02-07T20:54:11.697Z,53.87
2023-02-07T20:56:40.027Z,53.71
2023-02-07T20:59:09.972Z,54.11
2023-02-07T21:01:37.594Z,53.73
2023-02-07T21:04:06.592Z,53.57
2023-02-07T21:06:35.606Z,53.77
2023-02-07T21:09:06.355Z,53.85
2023-02-07T21:11:39.069Z,54.41
2023-02-07T21:14:13.809Z,54.10
2023-02-07T21:16:41.733Z,54.27
2023-02-07T21:19:09.750Z,54.57
2023-02-07T21:21:38.330Z,54.53
2023-02-07T21:24:06.151Z,54.10
2023-02-07T21:26:33.908Z,54.10
2023-02-07T21:29:03.768Z,54.44
2023-02-07T21:31:34.805Z,54.42
2023-02-07T21:34:04.583Z,54.58
2023-02-07T21:36:35.033Z,54.57
2023-02-07T21:39:08.383Z,54.31
2023-02-07T21:41:37.431Z,54.75
2023-02-07T21:44:05.280Z,54.53
2023-02-07T21:46:35.779Z,54.56
2023-02-07T21:49:07.440Z,54.66
2023-02-07T21:51:46.390Z,54.62
2023-02-07T21:54:16.000Z,54.85
2023-02-07T21:56:44.901Z,54.66
2023-02-07T21:59:15.950Z,54.71
2023-02-07T22:01:45.049Z,54.58
2023-02-07T22:04:15.984Z,54.45
2023-02-07T22:06:45.125Z,55.05
2023-02-07T22:09:14.223Z,54.88
2023-02-07T22:11:42.478Z,54.77
2023-02-07T22:14:12.074Z,54.69
2023-02-07T22:16:40.213Z,54.64
2023-02-07T22:19:11.174Z,54.96
2023-02-07T22:21:40.347Z,54.58
2023-02-07T22:24:08.103Z,54.74
2023-02-07T22:26:35.813Z,54.76
2023-02-07T22:29:05.318Z,54.94
2023-02-07T22:31:36.040Z,54.53
2023-02-07T22:34:14.080Z,54.69
2023-02-07T22:36:43.365Z,54.78
2023-02-07T22:39:13.588Z,54.49
2023-02-07T22:41:41.193Z,54.62
2023-02-07T22:44:08.808Z,54.79
2023-02-07T22:46:36.688Z,54.42
2023-02-07T22:49:04.160Z,54.74
2023-02-07T22:51:36.773Z,54.61
2023-02-07T22:54:07.237Z,54.35
2023-02-07T22:56:37.411Z,54.71
2023-02-07T22:59:05.919Z,54.10
2023-02-07T23:01:36.674Z,54.33
2023-02-07T23:04:05.810Z,54.44
2023-02-07T23:06:34.136Z,54.49
2023-02-07T23:09:02.029Z,54.52
2023-02-07T23:11:29.684Z,54.69
2023-02-07T23:13:57.220Z,54.40
2023-02-07T23:16:26.660Z,54.77
2023-02-07T23:18:58.448Z,54.46
2023-02-07T23:21:26.533Z,54.36
2023-02-07T23:23:55.670Z,54.61
2023-02-07T23:26:24.517Z,54.69
2023-02-07T23:28:52.871Z,54.81
2023-02-07T23:31:22.889Z,54.57
2023-02-07T23:33:51.654Z,54.55
2023-02-07T23:36:19.457Z,54.89
2023-02-07T23:38:48.633Z,54.43
2023-02-07T23:41:16.909Z,54.81
2023-02-07T23:43:45.213Z,54.48
2023-02-07T23:46:14.936Z,54.66
2023-02-07T23:48:42.638Z,54.30
2023-02-07T23:51:11.365Z,54.43
2023-02-07T23:53:39.331Z,54.27
2023-02-07T23:56:07.195Z,54.57
2023-02-07T23:58:34.815Z,54.57
